Time;durP1;ratioP1;P1;durP2;ratioP2;P2;SDS_P1;SDS_P2;PMS_P1;PMS_P2;Temp;Humidity;BMP_temperature;BMP_pressure;BME280_temperature;BME280_humidity;BME280_pressure;Samples;Min_cycle;Max_cycle;Signal;HPM_P1;HPM_P2
2022/05/27 00:04:58;;;;;;;6.45;1.92;;;;;;;14.54;77.53;101882.44;5048989;28;20056;-85
2022/05/27 00:07:27;;;;;;;6.63;1.90;;;;;;;14.57;77.46;101878.44;5050397;28;20408;-85
2022/05/27 00:09:57;;;;;;;5.00;1.65;;;;;;;14.52;77.48;101870.31;5016453;28;20029;-85
2022/05/27 00:12:22;;;;;;;8.55;2.33;;;;;;;14.56;77.75;101882.22;5050055;28;20036;-85
2022/05/27 00:14:47;;;;;;;7.50;1.80;;;;;;;14.65;78.38;101894.13;5048796;28;20021;-85
2022/05/27 00:17:14;;;;;;;6.93;1.97;;;;;;;14.60;79.03;101888.72;5050776;28;20072;-84
2022/05/27 00:19:43;;;;;;;7.53;2.28;;;;;;;14.57;79.03;101886.53;5041893;28;20037;-85
2022/05/27 00:22:11;;;;;;;8.80;1.88;;;;;;;14.55;78.78;101883.28;5030408;28;20036;-84
2022/05/27 00:24:36;;;;;;;4.70;1.80;;;;;;;14.58;78.62;101884.63;5030440;28;20021;-85
2022/05/27 00:27:05;;;;;;;5.73;1.77;;;;;;;14.56;78.86;101879.50;5030503;28;20029;-84
2022/05/27 00:29:30;;;;;;;8.60;2.10;;;;;;;14.57;78.75;101881.13;5030658;28;20052;-84
2022/05/27 00:31:56;;;;;;;5.30;1.70;;;;;;;14.54;78.99;101881.66;5029821;28;20476;-84
2022/05/27 00:34:21;;;;;;;5.20;1.80;;;;;;;14.57;79.16;101873.06;5030649;28;20026;-85
2022/05/27 00:36:47;;;;;;;6.43;1.97;;;;;;;14.54;79.01;101870.88;5029035;28;20064;-84
2022/05/27 00:39:12;;;;;;;8.23;1.80;;;;;;;14.58;78.79;101880.06;5030413;28;20037;-85
2022/05/27 00:41:40;;;;;;;9.50;2.43;;;;;;;14.58;78.58;101880.06;5030008;28;20487;-84
2022/05/27 00:44:05;;;;;;;6.72;2.08;;;;;;;14.54;79.13;101877.06;5046824;28;20045;-84
2022/05/27 00:46:34;;;;;;;6.70;2.03;;;;;;;14.54;79.23;101873.56;5049971;28;20032;-85
2022/05/27 00:49:24;;;;;;;7.30;1.80;;;;;;;14.56;79.16;101874.13;5049987;28;20025;-85
2022/05/27 00:51:54;;;;;;;5.75;2.00;;;;;;;14.52;79.16;101868.41;5040167;28;20056;-85
2022/05/27 00:54:26;;;;;;;5.70;2.38;;;;;;;14.52;80.50;101875.69;5030498;28;20398;-85
2022/05/27 00:56:57;;;;;;;8.40;2.08;;;;;;;14.44;81.81;101870.78;5029713;28;20034;-85
2022/05/27 00:59:26;;;;;;;6.07;2.08;;;;;;;14.43;81.38;101864.59;5030732;28;20068;-84
2022/05/27 01:01:52;;;;;;;7.63;2.05;;;;;;;14.37;82.98;101860.22;5029456;28;20029;-85
2022/05/27 01:04:19;;;;;;;7.00;2.07;;;;;;;14.23;84.94;101876.84;5029975;28;20025;-85
2022/05/27 01:06:46;;;;;;;8.13;2.80;;;;;;;14.04;86.07;101865.63;5029364;28;20366;-85
2022/05/27 01:09:13;;;;;;;8.90;2.45;;;;;;;13.89;87.38;101860.91;5012315;28;20025;-84
2022/05/27 01:12:15;;;;;;;8.10;2.58;;;;;;;13.84;87.79;101863.53;5028996;28;20067;-84
2022/05/27 01:15:02;;;;;;;6.43;2.78;;;;;;;13.88;86.98;101863.81;5031641;28;20575;-84
2022/05/27 01:17:40;;;;;;;15.88;3.22;;;;;;;13.91;87.82;101856.06;5049302;28;20040;-84
2022/05/27 01:20:19;;;;;;;12.18;2.90;;;;;;;14.00;87.73;101867.19;5034211;28;20029;-84
2022/05/27 01:23:29;;;;;;;10.75;2.42;;;;;;;13.99;87.49;101862.03;5028313;28;20037;-84
2022/05/27 01:26:21;;;;;;;8.50;2.80;;;;;;;13.94;89.04;101865.50;5029865;28;20052;-84
2022/05/27 01:29:03;;;;;;;11.32;2.92;;;;;;;13.86;90.15;101871.38;5029248;28;20034;-84
2022/05/27 01:31:56;;;;;;;9.13;3.03;;;;;;;13.78;90.16;101859.97;5011267;28;20029;-84
2022/05/27 01:34:53;;;;;;;7.07;2.70;;;;;;;13.78;90.91;101857.28;5028932;28;20762;-84
2022/05/27 01:37:29;;;;;;;9.00;3.40;;;;;;;13.74;91.46;101853.47;5030039;28;20128;-84
2022/05/27 01:40:18;;;;;;;11.77;3.22;;;;;;;13.66;92.31;101859.31;5029305;28;20083;-84
2022/05/27 01:43:05;;;;;;;12.73;3.65;;;;;;;13.52;94.49;101858.91;5028888;28;20044;-83
2022/05/27 01:45:40;;;;;;;11.40;4.03;;;;;;;13.44;95.49;101854.78;5029369;28;20478;-83
2022/05/27 01:48:23;;;;;;;12.85;3.83;;;;;;;13.38;96.63;101852.25;5045631;28;20054;-83
2022/05/27 01:50:48;;;;;;;10.65;4.20;;;;;;;13.34;97.05;101854.63;5032348;28;20037;-83
2022/05/27 01:53:46;;;;;;;10.57;4.10;;;;;;;13.28;97.22;101856.44;5033320;28;20120;-83
2022/05/27 01:56:22;;;;;;;15.10;4.25;;;;;;;13.21;98.26;101855.00;5033797;28;20040;-83
2022/05/27 01:58:53;;;;;;;13.35;4.22;;;;;;;13.16;100.00;101856.56;5033170;28;20029;-82
2022/05/27 02:01:23;;;;;;;13.23;4.40;;;;;;;13.13;100.00;101858.94;5033091;28;20029;-81
2022/05/27 02:04:04;;;;;;;16.40;4.77;;;;;;;13.06;100.00;101855.59;5032625;28;20291;-81
2022/05/27 02:06:38;;;;;;;13.07;4.65;;;;;;;13.05;100.00;101852.13;5033111;28;20091;-81
2022/05/27 02:09:29;;;;;;;13.60;5.53;;;;;;;12.97;100.00;101853.38;5032894;28;20045;-82
2022/05/27 02:12:02;;;;;;;13.10;5.38;;;;;;;12.99;100.00;101856.63;5032580;28;20029;-82
2022/05/27 02:14:54;;;;;;;14.13;4.95;;;;;;;12.97;100.00;101850.69;5033078;28;20392;-81
2022/05/27 02:17:26;;;;;;;11.68;4.95;;;;;;;12.94;100.00;101855.75;5033208;28;20057;-81
2022/05/27 02:19:56;;;;;;;13.82;5.30;;;;;;;12.88;100.00;101842.22;5032560;28;20025;-81
2022/05/27 02:22:28;;;;;;;14.63;5.63;;;;;;;12.88;100.00;101849.47;5032270;28;20033;-82
2022/05/27 02:25:08;;;;;;;12.18;5.20;;;;;;;12.86;100.00;101852.41;5033009;28;20028;-82
2022/05/27 02:27:38;;;;;;;16.60;6.17;;;;;;;12.83;100.00;101858.28;5032684;28;20603;-83
2022/05/27 02:30:08;;;;;;;13.60;6.27;;;;;;;12.85;100.00;101858.06;5032387;28;20685;-83
2022/05/27 02:32:40;;;;;;;14.40;6.40;;;;;;;12.84;100.00;101848.34;5032169;28;20034;-83
2022/05/27 02:35:10;;;;;;;15.75;6.70;;;;;;;12.85;100.00;101858.84;5032395;28;20495;-84
2022/05/27 02:37:41;;;;;;;17.05;6.45;;;;;;;12.82;100.00;101856.66;5031877;28;20026;-84
2022/05/27 02:40:19;;;;;;;17.75;7.50;;;;;;;12.80;100.00;101856.09;5032163;28;20033;-84
2022/05/27 02:43:20;;;;;;;13.30;6.85;;;;;;;12.84;100.00;101846.47;5031844;28;20392;-84
2022/05/27 02:46:19;;;;;;;14.77;7.07;;;;;;;12.79;100.00;101842.91;5012393;28;20045;-85
2022/05/27 02:49:27;;;;;;;15.25;7.25;;;;;;;12.75;100.00;101839.91;5032159;28;20029;-84
2022/05/27 02:52:29;;;;;;;13.80;7.10;;;;;;;12.76;100.00;101843.38;5031646;28;20022;-84
2022/05/27 02:55:10;;;;;;;13.47;7.60;;;;;;;12.77;100.00;101853.91;5032160;28;20104;-84
2022/05/27 02:57:58;;;;;;;16.50;7.73;;;;;;;12.73;100.00;101855.47;5031203;28;20276;-81
2022/05/27 03:00:27;;;;;;;14.70;7.88;;;;;;;12.76;100.00;101846.06;5030525;28;20380;-84
2022/05/27 03:02:52;;;;;;;15.60;8.25;;;;;;;12.72;100.00;101843.88;5032019;28;20158;-82
2022/05/27 03:05:25;;;;;;;10.95;8.18;;;;;;;12.68;100.00;101837.38;5032033;28;20025;-84
2022/05/27 03:08:10;;;;;;;16.05;8.30;;;;;;;12.74;100.00;101827.50;5031946;28;20022;-82
2022/05/27 03:10:58;;;;;;;11.23;7.65;;;;;;;12.67;100.00;101829.56;5031103;28;20033;-83
2022/05/27 03:13:59;;;;;;;17.00;8.77;;;;;;;12.64;100.00;101832.72;5041481;28;20041;-84
2022/05/27 03:16:48;;;;;;;13.43;8.13;;;;;;;12.65;100.00;101835.19;5051963;28;20276;-84
2022/05/27 03:19:38;;;;;;;14.98;8.65;;;;;;;12.65;100.00;101843.25;5046893;28;20085;-84
2022/05/27 03:22:24;;;;;;;16.63;8.45;;;;;;;12.65;100.00;101828.97;5031305;28;20029;-84
2022/05/27 03:25:34;;;;;;;15.02;9.63;;;;;;;12.65;100.00;101831.66;5031314;28;20033;-85
2022/05/27 03:28:11;;;;;;;13.85;8.43;;;;;;;12.63;100.00;101863.38;4951180;28;20039;-84
2022/05/27 03:31:01;;;;;;;16.27;7.60;;;;;;;12.54;100.00;101869.16;4950627;29;20039;-84
2022/05/27 03:34:05;;;;;;;10.77;6.00;;;;;;;12.50;100.00;101865.34;5011440;28;20041;-84
2022/05/27 03:36:37;;;;;;;8.07;5.22;;;;;;;12.46;100.00;101858.81;5017284;28;20095;-83
2022/05/27 03:39:19;;;;;;;5.50;3.70;;;;;;;12.46;100.00;101858.81;5031377;28;20468;-84
2022/05/27 03:41:52;;;;;;;9.47;4.30;;;;;;;12.37;100.00;101842.28;5030807;28;20033;-84
2022/05/27 03:44:22;;;;;;;10.50;4.60;;;;;;;12.52;100.00;101865.91;5031232;28;20288;-84
2022/05/27 03:46:50;;;;;;;9.88;4.18;;;;;;;12.38;100.00;101861.94;5031451;28;20037;-83
2022/05/27 03:49:16;;;;;;;7.82;3.85;;;;;;;12.29;100.00;101863.38;5013704;28;20499;-83
2022/05/27 03:51:56;;;;;;;8.18;3.72;;;;;;;12.30;100.00;101862.31;5030560;28;20079;-83
2022/05/27 03:54:22;;;;;;;9.00;4.10;;;;;;;12.23;100.00;101862.47;5031026;28;20037;-83
2022/05/27 03:56:48;;;;;;;7.80;3.47;;;;;;;12.18;100.00;101836.34;5031023;28;20477;-83
2022/05/27 03:59:16;;;;;;;8.20;3.42;;;;;;;12.24;100.00;101859.53;5031243;28;20041;-84
2022/05/27 04:01:44;;;;;;;13.57;4.07;;;;;;;12.22;100.00;101848.25;5030075;28;20029;-83
2022/05/27 04:04:12;;;;;;;6.73;3.47;;;;;;;12.24;100.00;101842.63;5031153;28;20030;-84
2022/05/27 04:06:38;;;;;;;9.80;3.77;;;;;;;12.31;100.00;101842.44;5030430;28;20272;-83
2022/05/27 04:09:04;;;;;;;9.48;4.22;;;;;;;12.35;100.00;101843.59;5031071;28;20098;-84
2022/05/27 04:11:30;;;;;;;7.87;3.93;;;;;;;12.39;100.00;101850.13;5029337;28;20503;-83
2022/05/27 04:13:56;;;;;;;8.45;4.40;;;;;;;12.40;100.00;101843.69;5016154;28;20045;-83
2022/05/27 04:16:21;;;;;;;10.38;4.80;;;;;;;12.44;100.00;101844.00;5011134;28;20511;-83
2022/05/27 04:18:46;;;;;;;6.97;4.13;;;;;;;12.49;100.00;101849.47;5011630;28;20032;-81
2022/05/27 04:21:11;;;;;;;11.93;4.70;;;;;;;12.52;100.00;101860.53;5030096;28;20073;-83
2022/05/27 04:23:37;;;;;;;8.80;4.87;;;;;;;12.53;100.00;101855.97;5030033;28;20036;-83
2022/05/27 04:26:04;;;;;;;11.98;5.38;;;;;;;12.53;100.00;101851.41;5030873;28;20053;-83
2022/05/27 04:28:29;;;;;;;11.82;5.22;;;;;;;12.60;100.00;101856.63;5030252;28;20029;-83
2022/05/27 04:30:54;;;;;;;10.80;5.23;;;;;;;12.65;100.00;101855.88;5030392;28;20481;-83
2022/05/27 04:33:20;;;;;;;8.90;5.40;;;;;;;12.63;100.00;101858.81;5030261;28;20033;-83
2022/05/27 04:35:46;;;;;;;13.25;6.30;;;;;;;12.66;100.00;101861.00;5030320;28;20389;-83
2022/05/27 04:38:12;;;;;;;13.77;6.20;;;;;;;12.65;100.00;101862.06;5030380;28;20029;-83
2022/05/27 04:40:37;;;;;;;16.30;6.93;;;;;;;12.65;100.00;101863.94;5029736;28;20333;-84
2022/05/27 04:43:03;;;;;;;15.65;6.75;;;;;;;12.69;100.00;101852.44;5035332;28;20036;-83
2022/05/27 04:45:29;;;;;;;15.00;6.97;;;;;;;12.67;100.00;101867.19;5029890;28;20025;-83
2022/05/27 04:47:55;;;;;;;17.63;8.52;;;;;;;12.73;100.00;101858.16;5030371;28;20101;-83
2022/05/27 04:50:21;;;;;;;14.90;9.70;;;;;;;12.81;100.00;101856.91;5029668;28;20484;-84
2022/05/27 04:52:46;;;;;;;21.33;10.73;;;;;;;12.92;100.00;101861.38;5029926;28;20035;-83
2022/05/27 04:55:14;;;;;;;24.27;10.73;;;;;;;13.02;100.00;101860.69;5030581;28;20058;-83
2022/05/27 04:57:46;;;;;;;25.73;11.73;;;;;;;13.15;100.00;101864.91;5030025;28;20056;-83
2022/05/27 05:00:19;;;;;;;21.55;11.27;;;;;;;13.20;100.00;101861.44;5029950;28;20060;-81
2022/05/27 05:02:44;;;;;;;22.77;11.20;;;;;;;13.28;100.00;101867.19;5029220;28;20037;-83
2022/05/27 05:05:11;;;;;;;17.65;10.27;;;;;;;13.31;100.00;101866.72;5030249;28;20026;-83
2022/05/27 05:07:40;;;;;;;23.77;11.18;;;;;;;13.38;100.00;101876.47;5029748;28;20056;-83
2022/05/27 05:10:10;;;;;;;21.77;11.70;;;;;;;13.47;100.00;101866.91;5029462;28;20072;-83
2022/05/27 05:12:36;;;;;;;26.93;11.33;;;;;;;13.49;100.00;101856.72;5029697;28;20313;-83
2022/05/27 05:15:01;;;;;;;26.00;12.50;;;;;;;13.65;100.00;101879.25;5030070;28;20079;-83
2022/05/27 05:17:26;;;;;;;28.73;13.27;;;;;;;13.81;100.00;101874.00;5030058;28;20021;-83
2022/05/27 05:19:56;;;;;;;28.80;13.73;;;;;;;13.84;100.00;101874.31;5019384;28;20443;-84
2022/05/27 05:22:22;;;;;;;25.60;12.98;;;;;;;13.86;100.00;101876.78;5010805;28;20030;-84
2022/05/27 05:24:48;;;;;;;26.60;12.90;;;;;;;13.93;100.00;101888.97;5029156;28;20452;-84
2022/05/27 05:27:14;;;;;;;30.40;13.13;;;;;;;13.96;100.00;101870.66;5028799;28;20389;-83
2022/05/27 05:29:39;;;;;;;28.23;13.97;;;;;;;14.13;100.00;101884.00;5029663;28;20025;-84
2022/05/27 05:32:05;;;;;;;31.97;13.10;;;;;;;14.14;100.00;101894.56;5029163;28;20038;-84
2022/05/27 05:34:31;;;;;;;27.73;12.32;;;;;;;14.16;100.00;101891.59;5029690;28;20037;-83
2022/05/27 05:36:56;;;;;;;29.58;11.60;;;;;;;14.11;100.00;101891.53;5029653;28;20030;-83
2022/05/27 05:39:23;;;;;;;27.50;10.83;;;;;;;14.00;100.00;101896.84;5029901;28;20029;-84
2022/05/27 05:42:01;;;;;;;28.80;10.80;;;;;;;14.07;100.00;101894.72;5028752;28;20087;-84
2022/05/27 05:44:26;;;;;;;22.05;10.40;;;;;;;14.27;100.00;101914.84;5030531;28;20025;-84
2022/05/27 05:46:52;;;;;;;29.93;9.57;;;;;;;14.13;100.00;101914.50;5029214;28;20026;-84
2022/05/27 05:49:18;;;;;;;33.80;10.02;;;;;;;14.08;100.00;101917.13;5029979;28;20025;-84
2022/05/27 05:51:43;;;;;;;25.33;9.30;;;;;;;14.05;100.00;101918.47;5028965;28;20034;-84
2022/05/27 05:54:09;;;;;;;22.93;8.37;;;;;;;13.95;100.00;101907.56;5011746;28;20030;-84
2022/05/27 05:56:34;;;;;;;26.40;8.57;;;;;;;14.04;100.00;101910.59;5029349;28;20129;-84
2022/05/27 05:59:00;;;;;;;28.60;8.63;;;;;;;14.13;100.00;101913.66;5029097;28;20029;-85
2022/05/27 06:01:26;;;;;;;16.17;8.27;;;;;;;14.28;100.00;101910.28;5029149;28;20040;-84
2022/05/27 06:03:51;;;;;;;18.43;7.60;;;;;;;14.49;100.00;101919.34;5029114;28;20025;-84
2022/05/27 06:06:19;;;;;;;24.10;7.57;;;;;;;14.75;100.00;101911.50;5029656;28;20091;-84
2022/05/27 06:08:45;;;;;;;17.53;5.80;;;;;;;14.99;100.00;101915.41;5028754;28;20033;-83
2022/05/27 06:11:10;;;;;;;18.83;5.60;;;;;;;14.81;100.00;101911.28;5029139;28;20286;-84
2022/05/27 06:13:36;;;;;;;18.17;5.17;;;;;;;14.51;100.00;101920.75;5037501;28;20068;-85
2022/05/27 06:16:03;;;;;;;22.67;5.30;;;;;;;14.63;100.00;101925.94;5033750;28;20029;-84
2022/05/27 06:18:29;;;;;;;18.70;4.97;;;;;;;14.75;100.00;101925.78;5029109;28;20543;-84
2022/05/27 06:20:54;;;;;;;17.42;5.57;;;;;;;14.90;100.00;101919.69;5028731;28;20125;-84
2022/05/27 06:23:21;;;;;;;13.80;4.60;;;;;;;14.96;100.00;101924.06;5029281;28;20112;-84
2022/05/27 06:25:53;;;;;;;13.77;4.32;;;;;;;14.88;100.00;101921.03;5028541;28;20029;-84
2022/05/27 06:36:31;;;;;;;13.07;3.33;;;;;;;14.50;100.00;101924.50;5032611;28;20128;-84
2022/05/27 06:38:56;;;;;;;12.65;2.63;;;;;;;14.46;100.00;101938.75;5032588;28;20024;-83
2022/05/27 06:41:22;;;;;;;11.77;2.77;;;;;;;14.35;99.93;101933.28;5031265;28;20560;-83
2022/05/27 06:43:47;;;;;;;12.57;2.50;;;;;;;14.38;100.00;101938.16;5032523;28;20198;-83
2022/05/27 06:46:13;;;;;;;15.60;2.77;;;;;;;14.32;97.39;101938.38;5032962;28;20361;-84
2022/05/27 06:48:38;;;;;;;10.20;2.50;;;;;;;14.33;97.65;101930.03;5032132;28;20021;-83
2022/05/27 06:51:06;;;;;;;11.37;1.90;;;;;;;14.19;93.40;101936.91;5032101;28;20494;-83
2022/05/27 06:53:31;;;;;;;8.73;2.10;;;;;;;14.24;96.51;101937.75;5032212;28;20480;-83
2022/05/27 06:55:57;;;;;;;14.37;2.47;;;;;;;14.30;94.88;101937.81;5047897;28;20060;-83
2022/05/27 06:58:22;;;;;;;9.17;2.30;;;;;;;14.33;96.45;101935.41;5032112;28;20037;-83
2022/05/27 07:00:47;;;;;;;10.40;2.30;;;;;;;14.41;94.30;101941.41;5031760;28;20890;-83
2022/05/27 07:03:12;;;;;;;12.30;2.27;;;;;;;14.46;95.53;101949.53;5031910;28;20058;-83
2022/05/27 07:05:38;;;;;;;5.63;1.90;;;;;;;14.74;98.54;101953.03;5014067;28;20022;-83
2022/05/27 07:08:05;;;;;;;7.45;2.20;;;;;;;15.12;94.77;101945.75;5032172;28;20392;-83
2022/05/27 07:10:31;;;;;;;11.07;2.60;;;;;;;15.18;92.32;101952.78;5031174;28;20152;-84
2022/05/27 07:12:59;;;;;;;8.63;2.22;;;;;;;15.35;90.42;101955.31;5031916;28;20109;-84
2022/05/27 07:15:29;;;;;;;11.48;2.20;;;;;;;15.54;90.06;101939.44;5031844;28;20108;-84
2022/05/27 07:17:55;;;;;;;10.23;2.63;;;;;;;15.72;89.20;101948.97;5032197;28;20032;-83
2022/05/27 07:20:20;;;;;;;9.05;2.03;;;;;;;15.46;87.93;101939.97;5031600;28;20401;-84
2022/05/27 07:22:46;;;;;;;7.50;2.10;;;;;;;15.46;90.21;101950.75;5031163;28;20025;-83
2022/05/27 07:25:13;;;;;;;6.23;1.90;;;;;;;15.37;85.74;101957.72;5014133;28;20401;-84
2022/05/27 07:27:40;;;;;;;6.13;2.28;;;;;;;15.08;90.42;101944.63;5031093;28;20456;-84
2022/05/27 07:30:07;;;;;;;10.00;2.25;;;;;;;15.14;89.68;101946.28;5030486;28;20029;-84
2022/05/27 07:32:36;;;;;;;11.55;2.67;;;;;;;15.17;89.33;101943.03;5031003;28;20032;-83
2022/05/27 07:37:49;;;;;;;11.30;2.70;;;;;;;15.18;90.73;101950.06;5031182;28;20304;-84
2022/05/27 07:40:18;;;;;;;7.40;3.00;;;;;;;15.24;91.15;101949.03;5031238;28;20072;-84
2022/05/27 07:42:43;;;;;;;8.33;2.53;;;;;;;15.40;91.09;101954.50;5034804;28;20112;-84
2022/05/27 07:45:11;;;;;;;14.10;2.67;;;;;;;15.80;88.55;101955.75;5033136;28;20664;-84
2022/05/27 07:47:37;;;;;;;12.00;3.10;;;;;;;16.22;86.54;101956.69;5050954;28;20100;-84
2022/05/27 07:50:04;;;;;;;7.47;2.58;;;;;;;16.70;83.88;101959.13;5050840;28;20113;-84
2022/05/27 07:52:30;;;;;;;14.50;2.80;;;;;;;16.55;82.62;101964.56;5050875;28;20032;-84
2022/05/27 07:54:55;;;;;;;12.30;2.80;;;;;;;16.18;83.89;101971.81;5051139;28;20033;-84
2022/05/27 07:57:24;;;;;;;6.82;2.65;;;;;;;15.85;86.68;101965.75;5032890;28;20021;-84
2022/05/27 07:59:52;;;;;;;12.10;3.40;;;;;;;15.73;85.06;101968.69;5030929;28;20471;-84
2022/05/27 08:02:18;;;;;;;10.13;2.70;;;;;;;15.58;84.63;101978.34;5030835;28;20039;-84
2022/05/27 08:04:43;;;;;;;8.40;2.90;;;;;;;15.63;85.39;101960.56;5030921;28;20108;-84
2022/05/27 08:07:08;;;;;;;10.33;2.77;;;;;;;15.90;82.95;101960.41;5031045;28;20442;-83
2022/05/27 08:09:33;;;;;;;8.27;2.67;;;;;;;16.30;81.74;101979.66;5030815;28;20034;-84
2022/05/27 08:11:59;;;;;;;7.60;2.20;;;;;;;16.63;78.47;101966.69;5030221;28;20030;-84
2022/05/27 08:14:24;;;;;;;5.03;1.93;;;;;;;16.95;77.36;101968.34;5030846;28;20057;-84
2022/05/27 08:16:50;;;;;;;9.87;2.23;;;;;;;16.93;76.14;101979.41;5030411;28;20838;-84
2022/05/27 08:19:15;;;;;;;10.88;2.00;;;;;;;16.72;78.13;101972.38;5031106;28;20044;-84
2022/05/27 08:21:40;;;;;;;8.87;2.00;;;;;;;16.55;75.97;101981.59;5030456;28;20148;-84
2022/05/27 08:24:09;;;;;;;7.97;2.30;;;;;;;16.33;76.29;101995.38;5030649;28;20070;-84
2022/05/27 08:26:35;;;;;;;7.53;2.20;;;;;;;16.13;78.80;101988.84;5030808;28;20075;-84
2022/05/27 08:29:00;;;;;;;7.68;2.10;;;;;;;15.96;79.54;101986.38;5029997;28;20037;-84
2022/05/27 08:31:26;;;;;;;9.37;2.53;;;;;;;16.15;82.38;101989.38;5030241;28;20059;-84
2022/05/27 08:39:22;;;;;;;14.70;2.63;;;;;;;17.07;78.33;101978.88;5030437;28;20088;-84
2022/05/27 08:42:13;;;;;;;10.13;2.40;;;;;;;17.70;78.48;101983.00;5030451;28;20037;-83
2022/05/27 08:45:07;;;;;;;8.85;2.60;;;;;;;18.24;73.83;101984.09;5034405;28;20025;-84
2022/05/27 08:48:03;;;;;;;8.10;2.50;;;;;;;18.25;71.02;101976.75;5050352;28;20025;-84
2022/05/27 08:50:35;;;;;;;6.57;2.20;;;;;;;17.97;70.42;101995.34;5049860;28;20068;-84
2022/05/27 08:53:22;;;;;;;7.70;2.30;;;;;;;17.35;71.66;101999.09;5050427;28;20619;-84
2022/05/27 09:01:42;;;;;;;10.68;2.30;;;;;;;16.38;76.36;102000.78;5049336;28;20101;-84
2022/05/27 09:04:59;;;;;;;8.07;1.80;;;;;;;16.42;73.49;102004.59;5050192;28;20132;-84
2022/05/27 09:07:55;;;;;;;7.43;2.40;;;;;;;16.38;73.73;102008.06;4988052;28;20343;-84
2022/05/27 09:10:29;;;;;;;9.90;2.47;;;;;;;16.67;70.72;102007.56;4988458;28;20489;-84
2022/05/27 09:13:35;;;;;;;8.30;2.47;;;;;;;17.12;74.41;102005.13;4953734;28;20039;-84
2022/05/27 09:16:17;;;;;;;6.22;2.90;;;;;;;17.79;69.99;101996.78;4931129;28;20046;-84
2022/05/27 09:19:09;;;;;;;8.55;2.40;;;;;;;18.21;69.49;102006.38;4996245;28;20096;-85
2022/05/27 09:22:03;;;;;;;7.45;2.25;;;;;;;17.81;66.67;102011.69;5029260;28;20122;-84
2022/05/27 09:25:30;;;;;;;7.55;2.20;;;;;;;17.76;63.60;102008.19;5029358;28;20096;-85
2022/05/27 09:28:10;;;;;;;7.00;1.92;;;;;;;17.65;64.96;102019.09;4948970;29;20031;-85
2022/05/27 09:30:39;;;;;;;9.38;1.83;;;;;;;17.92;61.17;102017.88;5002383;28;20038;-85
2022/05/27 09:33:09;;;;;;;9.17;2.37;;;;;;;18.07;60.59;102025.16;5009869;28;20465;-84
2022/05/27 09:35:48;;;;;;;6.40;2.00;;;;;;;18.66;60.08;102029.91;5009610;28;20428;-84
2022/05/27 09:38:19;;;;;;;9.02;2.00;;;;;;;18.96;57.97;102037.03;5010608;28;20030;-85
2022/05/27 09:41:00;;;;;;;11.63;2.63;;;;;;;18.33;57.05;102022.31;5009612;28;20073;-85
2022/05/27 09:43:31;;;;;;;6.78;2.10;;;;;;;17.68;58.59;102042.94;5019799;28;20416;-85
2022/05/27 09:46:10;;;;;;;9.90;2.53;;;;;;;17.41;60.92;102054.13;5033897;28;20053;-85
2022/05/27 09:48:39;;;;;;;11.75;2.38;;;;;;;17.44;58.37;102053.53;5018091;28;20162;-85
2022/05/27 09:51:07;;;;;;;8.70;2.35;;;;;;;17.18;58.55;102039.22;5036184;28;20029;-86
2022/05/27 09:53:42;;;;;;;6.78;2.10;;;;;;;16.95;59.18;102047.66;5032089;28;20413;-86
2022/05/27 09:56:11;;;;;;;8.65;2.17;;;;;;;17.11;61.96;102050.34;5030072;28;20049;-86
2022/05/27 09:58:42;;;;;;;7.50;2.10;;;;;;;17.52;59.71;102063.03;5029782;28;20025;-86
2022/05/27 10:01:28;;;;;;;8.77;2.23;;;;;;;17.99;60.68;102034.69;5029635;28;20750;-86
2022/05/27 10:04:08;;;;;;;9.20;2.40;;;;;;;18.91;59.16;102054.16;5029889;28;20041;-86
2022/05/27 10:06:35;;;;;;;10.75;2.40;;;;;;;19.02;53.69;102043.22;5035746;28;20029;-87
2022/05/27 10:09:04;;;;;;;8.57;2.40;;;;;;;18.70;53.25;102023.66;5035309;28;20089;-86
2022/05/27 10:11:34;;;;;;;8.95;1.95;;;;;;;18.30;55.45;102061.63;5039552;28;20588;-85
2022/05/27 10:14:06;;;;;;;10.50;2.08;;;;;;;18.16;56.78;102049.78;5037194;28;20578;-84
2022/05/27 10:16:32;;;;;;;8.57;2.13;;;;;;;18.23;57.49;102054.91;5032622;28;20037;-84
2022/05/27 10:19:21;;;;;;;8.80;2.25;;;;;;;18.77;54.95;102053.19;5033263;28;20029;-84
2022/05/27 10:21:54;;;;;;;6.90;1.83;;;;;;;19.18;50.26;102055.56;5032333;28;20083;-84
2022/05/27 10:24:30;;;;;;;9.43;1.97;;;;;;;19.57;51.03;102050.28;5033784;28;20371;-86
2022/05/27 10:27:21;;;;;;;7.00;1.95;;;;;;;20.27;50.91;102054.31;5032546;28;20029;-85
2022/05/27 10:29:56;;;;;;;8.02;1.60;;;;;;;20.64;48.33;102058.09;5032765;28;20030;-85
2022/05/27 10:32:37;;;;;;;15.25;2.50;;;;;;;20.51;49.91;102050.69;5031281;28;20021;-85
2022/05/27 10:35:08;;;;;;;11.82;2.50;;;;;;;20.20;45.20;102056.59;5032254;28;20534;-85
2022/05/27 10:38:10;;;;;;;14.68;2.58;;;;;;;20.23;50.13;102056.81;5032265;28;20443;-85
2022/05/27 10:40:45;;;;;;;7.70;2.40;;;;;;;20.19;47.31;102057.69;5032138;28;20034;-85
2022/05/27 10:43:33;;;;;;;9.10;2.05;;;;;;;20.05;46.39;102058.44;5038554;28;20098;-85
2022/05/27 10:46:03;;;;;;;9.43;2.30;;;;;;;19.78;47.09;102059.81;5053451;28;20543;-85
2022/05/27 10:48:40;;;;;;;8.03;2.30;;;;;;;19.90;48.91;102050.47;5034238;28;20112;-85
2022/05/27 10:51:37;;;;;;;11.17;2.20;;;;;;;19.87;49.30;102061.91;5052059;28;20279;-85
2022/05/27 10:54:33;;;;;;;11.63;2.17;;;;;;;19.72;48.96;102058.25;5007991;28;20045;-86
2022/05/27 11:03:28;;;;;;;11.20;2.20;;;;;;;20.61;47.50;102053.28;5012849;28;20052;-86
2022/05/27 11:06:31;;;;;;;11.38;2.50;;;;;;;20.76;45.74;102060.41;5012716;28;20061;-86
2022/05/27 11:09:10;;;;;;;9.85;2.58;;;;;;;20.30;44.48;102058.38;5012685;28;20026;-86
2022/05/27 11:11:49;;;;;;;8.80;2.20;;;;;;;19.63;44.43;102068.16;5015875;28;20030;-86
2022/05/27 11:15:12;;;;;;;10.77;2.30;;;;;;;19.29;47.56;102058.19;5046260;28;20032;-87
2022/05/27 11:18:12;;;;;;;15.10;2.30;;;;;;;19.56;45.67;102052.19;5030823;28;20030;-86
2022/05/27 11:21:12;;;;;;;7.40;2.10;;;;;;;19.80;43.62;102064.97;5031224;28;20296;-86
2022/05/27 11:23:56;;;;;;;9.00;2.05;;;;;;;19.62;43.83;102059.19;5031844;28;20091;-86
2022/05/27 11:26:32;;;;;;;8.88;2.00;;;;;;;19.64;42.91;102053.47;5031887;28;20091;-87
2022/05/27 11:29:35;;;;;;;9.25;1.90;;;;;;;20.20;44.87;102059.31;5031796;28;20385;-87
2022/05/27 11:32:18;;;;;;;10.68;2.20;;;;;;;21.26;44.32;102059.81;5031543;28;20041;-85
2022/05/27 11:35:05;;;;;;;11.32;2.15;;;;;;;22.18;41.54;102070.00;5031160;28;20017;-86
2022/05/27 11:37:42;;;;;;;8.65;1.88;;;;;;;21.99;40.70;102072.06;5031859;28;20033;-86
2022/05/27 11:40:21;;;;;;;14.95;2.75;;;;;;;21.17;42.48;102064.38;5031348;28;20026;-86
2022/05/27 11:43:07;;;;;;;8.80;2.40;;;;;;;20.48;43.12;102070.34;5033043;28;20029;-86
2022/05/27 11:45:35;;;;;;;10.03;2.30;;;;;;;20.22;44.80;102065.28;5051333;28;20067;-86
2022/05/27 11:48:17;;;;;;;12.03;2.80;;;;;;;20.13;46.91;102068.66;5052792;28;20276;-86
2022/05/27 11:51:07;;;;;;;8.80;2.30;;;;;;;20.21;44.25;102071.81;5034609;28;20041;-86
2022/05/27 11:53:49;;;;;;;14.52;2.40;;;;;;;20.10;43.00;102069.22;5032592;28;20060;-85
2022/05/27 11:56:14;;;;;;;11.77;2.10;;;;;;;20.09;41.88;102080.41;5033324;28;20056;-86
2022/05/27 11:59:00;;;;;;;9.83;2.20;;;;;;;20.30;45.16;102075.50;5032451;28;20440;-86
2022/05/27 12:01:36;;;;;;;10.02;2.00;;;;;;;20.32;43.12;102073.28;5013066;28;20499;-87
2022/05/27 12:04:44;;;;;;;9.32;2.05;;;;;;;20.41;42.96;102073.44;5031343;28;20443;-87
2022/05/27 12:07:23;;;;;;;11.95;2.45;;;;;;;20.15;40.61;102070.25;5031221;28;20061;-87
2022/05/27 12:09:57;;;;;;;7.05;1.73;;;;;;;19.62;43.20;102055.66;5031085;28;20040;-87
2022/05/27 12:12:28;;;;;;;8.23;2.10;;;;;;;19.97;42.37;102078.09;5031017;28;20017;-87
2022/05/27 12:15:01;;;;;;;9.98;2.30;;;;;;;19.89;42.07;102082.28;5031336;28;20383;-87
2022/05/27 12:17:49;;;;;;;11.03;2.10;;;;;;;19.96;41.96;102069.16;5031295;28;20105;-86
2022/05/27 12:20:20;;;;;;;8.67;1.93;;;;;;;19.47;42.17;102072.94;5031162;28;20283;-86
2022/05/27 12:22:48;;;;;;;15.88;2.17;;;;;;;19.27;43.60;102073.97;5037708;28;20029;-86